Terminal Aerodrome Forecast
Issued by NWS

Home | Current Version | Previous Version | Text Only | Print | Product List | Glossary On
Versions: 1 2 3 4 5 6 7 8 9 10 11 12 13 14 15 16 17 18 19 20
252
FTUS46 KMTR 110520
TAFMRY
TAF
KMRY 110520Z 1106/1206 VRB03KT P6SM SCT015 BKN120
     FM111200 VRB03KT P6SM FEW030 BKN200
     FM111800 29006KT P6SM BKN200
     FM120300 VRB03KT P6SM BKN200=

USA.gov is the U.S. government's official web portal to all federal, state and local government web resources and services.